sensor_id;sensor_type;location;lat;lon;timestamp;pressure;altitude;pressure_sealevel;temperature;humidity
78094;BME280;67327;37.152;-76.406;2023-03-23T00:01:22;102470.77;;;42.85;7.51
78094;BME280;67327;37.152;-76.406;2023-03-23T00:03:47;102467.59;;;42.80;7.53
78094;BME280;67327;37.152;-76.406;2023-03-23T00:06:11;102464.12;;;42.73;7.56
78094;BME280;67327;37.152;-76.406;2023-03-23T00:08:37;102466.49;;;42.70;7.56
78094;BME280;67327;37.152;-76.406;2023-03-23T00:11:01;102467.08;;;42.45;7.56
78094;BME280;67327;37.152;-76.406;2023-03-23T00:13:27;102461.29;;;42.66;7.57
78094;BME280;67327;37.152;-76.406;2023-03-23T00:15:52;102465.93;;;42.40;7.59
78094;BME280;67327;37.152;-76.406;2023-03-23T00:18:17;102468.34;;;42.64;7.58
78094;BME280;67327;37.152;-76.406;2023-03-23T00:20:42;102468.03;;;42.84;7.60
78094;BME280;67327;37.152;-76.406;2023-03-23T00:23:07;102460.87;;;42.79;7.61
78094;BME280;67327;37.152;-76.406;2023-03-23T00:25:32;102454.84;;;42.74;7.64
78094;BME280;67327;37.152;-76.406;2023-03-23T00:27:57;102450.57;;;42.43;7.65
78094;BME280;67327;37.152;-76.406;2023-03-23T00:30:22;102451.59;;;42.65;7.67
78094;BME280;67327;37.152;-76.406;2023-03-23T00:32:47;102447.56;;;42.41;7.68
78094;BME280;67327;37.152;-76.406;2023-03-23T00:35:12;102446.56;;;42.62;7.69
78094;BME280;67327;37.152;-76.406;2023-03-23T00:37:38;102453.44;;;42.60;7.71
78094;BME280;67327;37.152;-76.406;2023-03-23T00:40:04;102458.73;;;42.59;7.72
78094;BME280;67327;37.152;-76.406;2023-03-23T00:42:28;102457.67;;;42.34;7.73
78094;BME280;67327;37.152;-76.406;2023-03-23T00:44:53;102454.50;;;42.31;7.73
78094;BME280;67327;37.152;-76.406;2023-03-23T00:47:18;102453.13;;;42.51;7.76
78094;BME280;67327;37.152;-76.406;2023-03-23T00:49:44;102447.25;;;42.47;7.78
78094;BME280;67327;37.152;-76.406;2023-03-23T00:52:10;102447.98;;;42.22;7.80
78094;BME280;67327;37.152;-76.406;2023-03-23T00:54:34;102449.03;;;42.45;7.81
78094;BME280;67327;37.152;-76.406;2023-03-23T00:56:59;102444.23;;;42.41;7.82
78094;BME280;67327;37.152;-76.406;2023-03-23T00:59:24;102445.93;;;42.37;7.86
78094;BME280;67327;37.152;-76.406;2023-03-23T01:01:50;102446.61;;;42.35;7.87
78094;BME280;67327;37.152;-76.406;2023-03-23T01:04:15;102450.43;;;41.60;7.89
78094;BME280;67327;37.152;-76.406;2023-03-23T01:06:43;102447.67;;;42.31;7.89
78094;BME280;67327;37.152;-76.406;2023-03-23T01:09:09;102445.43;;;42.28;7.91
78094;BME280;67327;37.152;-76.406;2023-03-23T01:11:30;102447.74;;;42.24;7.93
78094;BME280;67327;37.152;-76.406;2023-03-23T01:13:56;102448.89;;;42.19;7.96
78094;BME280;67327;37.152;-76.406;2023-03-23T01:16:21;102453.90;;;41.92;7.98
78094;BME280;67327;37.152;-76.406;2023-03-23T01:18:46;102453.70;;;42.40;7.99
78094;BME280;67327;37.152;-76.406;2023-03-23T01:21:13;102448.13;;;42.14;8.00
78094;BME280;67327;37.152;-76.406;2023-03-23T01:23:37;102441.65;;;42.12;8.02
78094;BME280;67327;37.152;-76.406;2023-03-23T01:26:04;102437.77;;;42.37;8.02
78094;BME280;67327;37.152;-76.406;2023-03-23T01:28:27;102440.04;;;42.16;8.03
78094;BME280;67327;37.152;-76.406;2023-03-23T01:30:52;102439.75;;;42.14;8.01
78094;BME280;67327;37.152;-76.406;2023-03-23T01:33:17;102440.90;;;42.11;8.04
78094;BME280;67327;37.152;-76.406;2023-03-23T01:35:42;102444.82;;;42.35;8.04
78094;BME280;67327;37.152;-76.406;2023-03-23T01:38:08;102446.83;;;42.33;8.05
78094;BME280;67327;37.152;-76.406;2023-03-23T01:40:32;102452.19;;;42.04;8.08
78094;BME280;67327;37.152;-76.406;2023-03-23T01:42:58;102444.61;;;42.02;8.09
78094;BME280;67327;37.152;-76.406;2023-03-23T01:45:31;102445.75;;;42.01;8.09
78094;BME280;67327;37.152;-76.406;2023-03-23T01:47:50;102442.25;;;42.02;8.08
78094;BME280;67327;37.152;-76.406;2023-03-23T01:50:13;102443.53;;;42.05;8.09
78094;BME280;67327;37.152;-76.406;2023-03-23T01:52:38;102445.70;;;42.06;8.09
78094;BME280;67327;37.152;-76.406;2023-03-23T01:55:04;102445.81;;;42.09;8.09
78094;BME280;67327;37.152;-76.406;2023-03-23T01:57:29;102446.85;;;42.11;8.07
78094;BME280;67327;37.152;-76.406;2023-03-23T01:59:55;102444.79;;;42.14;8.08
78094;BME280;67327;37.152;-76.406;2023-03-23T02:02:21;102446.77;;;42.17;8.07
78094;BME280;67327;37.152;-76.406;2023-03-23T02:04:44;102448.37;;;42.17;8.08
78094;BME280;67327;37.152;-76.406;2023-03-23T02:07:10;102451.82;;;41.95;8.07
78094;BME280;67327;37.152;-76.406;2023-03-23T02:09:35;102453.69;;;42.41;8.07
78094;BME280;67327;37.152;-76.406;2023-03-23T02:11:59;102454.42;;;42.13;8.06
78094;BME280;67327;37.152;-76.406;2023-03-23T02:14:27;102456.28;;;42.08;8.06
78094;BME280;67327;37.152;-76.406;2023-03-23T02:16:55;102458.12;;;42.01;8.07
78094;BME280;67327;37.152;-76.406;2023-03-23T02:19:30;102464.66;;;41.96;8.06
78094;BME280;67327;37.152;-76.406;2023-03-23T02:22:00;102465.68;;;41.94;8.07
78094;BME280;67327;37.152;-76.406;2023-03-23T02:26:40;102443.32;;;42.16;8.06
78094;BME280;67327;37.152;-76.406;2023-03-23T02:29:08;102433.81;;;41.90;8.06
78094;BME280;67327;37.152;-76.406;2023-03-23T02:31:31;102424.34;;;41.90;8.08
78094;BME280;67327;37.152;-76.406;2023-03-23T02:33:50;102416.84;;;42.15;8.09
78094;BME280;67327;37.152;-76.406;2023-03-23T02:36:16;102412.21;;;42.15;8.08
78094;BME280;67327;37.152;-76.406;2023-03-23T02:38:40;102416.22;;;42.14;8.08
78094;BME280;67327;37.152;-76.406;2023-03-23T02:41:03;102419.81;;;42.14;8.10
78094;BME280;67327;37.152;-76.406;2023-03-23T02:43:30;102420.44;;;41.88;8.09
78094;BME280;67327;37.152;-76.406;2023-03-23T02:45:52;102423.47;;;41.86;8.11
78094;BME280;67327;37.152;-76.406;2023-03-23T02:48:20;102426.84;;;41.84;8.12
78094;BME280;67327;37.152;-76.406;2023-03-23T02:50:45;102422.18;;;42.06;8.12
78094;BME280;67327;37.152;-76.406;2023-03-23T02:53:10;102421.72;;;42.04;8.13
78094;BME280;67327;37.152;-76.406;2023-03-23T02:55:32;102421.74;;;42.02;8.13
78094;BME280;67327;37.152;-76.406;2023-03-23T02:57:57;102422.88;;;41.98;8.13
78094;BME280;67327;37.152;-76.406;2023-03-23T03:00:23;102420.32;;;41.96;8.14
78094;BME280;67327;37.152;-76.406;2023-03-23T03:02:49;102422.93;;;41.93;8.16
78094;BME280;67327;37.152;-76.406;2023-03-23T03:05:18;102417.94;;;41.89;8.16
78094;BME280;67327;37.152;-76.406;2023-03-23T03:07:47;102414.93;;;41.89;8.16
78094;BME280;67327;37.152;-76.406;2023-03-23T03:10:06;102416.45;;;41.89;8.15
78094;BME280;67327;37.152;-76.406;2023-03-23T03:12:33;102409.92;;;41.87;8.16
78094;BME280;67327;37.152;-76.406;2023-03-23T03:14:59;102413.17;;;41.86;8.16
78094;BME280;67327;37.152;-76.406;2023-03-23T03:17:23;102409.56;;;41.85;8.17
78094;BME280;67327;37.152;-76.406;2023-03-23T03:19:46;102412.75;;;41.83;8.16
78094;BME280;67327;37.152;-76.406;2023-03-23T03:22:09;102416.40;;;41.82;8.16
78094;BME280;67327;37.152;-76.406;2023-03-23T03:24:34;102421.02;;;41.80;8.18
78094;BME280;67327;37.152;-76.406;2023-03-23T03:27:00;102419.02;;;41.78;8.19
78094;BME280;67327;37.152;-76.406;2023-03-23T03:29:28;102420.20;;;41.98;8.19
78094;BME280;67327;37.152;-76.406;2023-03-23T03:31:51;102417.66;;;41.70;8.19
78094;BME280;67327;37.152;-76.406;2023-03-23T03:34:15;102419.36;;;41.70;8.20
78094;BME280;67327;37.152;-76.406;2023-03-23T03:36:40;102425.99;;;41.68;8.21
78094;BME280;67327;37.152;-76.406;2023-03-23T03:39:07;102426.23;;;41.42;8.20
78094;BME280;67327;37.152;-76.406;2023-03-23T03:41:30;102430.26;;;41.63;8.21
78094;BME280;67327;37.152;-76.406;2023-03-23T03:43:55;102429.67;;;41.37;8.22
78094;BME280;67327;37.152;-76.406;2023-03-23T03:46:20;102427.70;;;41.61;8.20
78094;BME280;67327;37.152;-76.406;2023-03-23T03:48:45;102420.20;;;41.58;8.22
78094;BME280;67327;37.152;-76.406;2023-03-23T03:51:10;102420.70;;;41.54;8.22
78094;BME280;67327;37.152;-76.406;2023-03-23T03:53:35;102412.75;;;41.52;8.24
78094;BME280;67327;37.152;-76.406;2023-03-23T03:56:01;102414.31;;;41.52;8.23
78094;BME280;67327;37.152;-76.406;2023-03-23T03:58:26;102412.26;;;41.74;8.24
78094;BME280;67327;37.152;-76.406;2023-03-23T04:00:51;102414.07;;;41.49;8.23
78094;BME280;67327;37.152;-76.406;2023-03-23T04:03:16;102415.36;;;41.49;8.23
78094;BME280;67327;37.152;-76.406;2023-03-23T04:05:41;102416.04;;;41.47;8.23
78094;BME280;67327;37.152;-76.406;2023-03-23T04:08:06;102417.64;;;41.41;8.25
78094;BME280;67327;37.152;-76.406;2023-03-23T04:10:32;102411.32;;;41.38;8.26
78094;BME280;67327;37.152;-76.406;2023-03-23T04:12:57;102407.98;;;41.57;8.27
78094;BME280;67327;37.152;-76.406;2023-03-23T04:15:22;102408.74;;;41.30;8.27
78094;BME280;67327;37.152;-76.406;2023-03-23T04:17:47;102403.02;;;41.31;8.27
78094;BME280;67327;37.152;-76.406;2023-03-23T04:20:12;102401.10;;;41.31;8.26
78094;BME280;67327;37.152;-76.406;2023-03-23T04:22:37;102401.42;;;41.29;8.26
78094;BME280;67327;37.152;-76.406;2023-03-23T04:25:03;102402.43;;;41.51;8.26
78094;BME280;67327;37.152;-76.406;2023-03-23T04:27:28;102398.81;;;41.49;8.27
78094;BME280;67327;37.152;-76.406;2023-03-23T04:29:54;102402.83;;;41.46;8.28
78094;BME280;67327;37.152;-76.406;2023-03-23T04:32:18;102394.95;;;41.21;8.27
78094;BME280;67327;37.152;-76.406;2023-03-23T04:34:43;102400.20;;;41.19;8.27
78094;BME280;67327;37.152;-76.406;2023-03-23T04:37:08;102405.54;;;41.17;8.28
78094;BME280;67327;37.152;-76.406;2023-03-23T04:39:33;102408.06;;;41.38;8.28
78094;BME280;67327;37.152;-76.406;2023-03-23T04:41:58;102408.71;;;41.37;8.28
78094;BME280;67327;37.152;-76.406;2023-03-23T04:44:24;102405.97;;;41.12;8.28
78094;BME280;67327;37.152;-76.406;2023-03-23T04:46:49;102404.86;;;41.08;8.30
78094;BME280;67327;37.152;-76.406;2023-03-23T04:49:15;102400.60;;;41.07;8.30
78094;BME280;67327;37.152;-76.406;2023-03-23T04:51:39;102393.99;;;41.29;8.30
78094;BME280;67327;37.152;-76.406;2023-03-23T04:54:04;102399.25;;;41.06;8.28
78094;BME280;67327;37.152;-76.406;2023-03-23T04:56:29;102398.73;;;41.05;8.29
78094;BME280;67327;37.152;-76.406;2023-03-23T04:58:54;102394.35;;;41.29;8.26
78094;BME280;67327;37.152;-76.406;2023-03-23T05:01:19;102394.90;;;41.03;8.29
78094;BME280;67327;37.152;-76.406;2023-03-23T05:03:45;102392.87;;;41.49;8.30
78094;BME280;67327;37.152;-76.406;2023-03-23T05:06:10;102390.97;;;40.99;8.30
78094;BME280;67327;37.152;-76.406;2023-03-23T05:08:35;102398.04;;;41.00;8.30
78094;BME280;67327;37.152;-76.406;2023-03-23T05:11:01;102401.39;;;41.22;8.29
78094;BME280;67327;37.152;-76.406;2023-03-23T05:13:26;102407.61;;;40.98;8.30
78094;BME280;67327;37.152;-76.406;2023-03-23T05:15:50;102404.58;;;40.97;8.30
78094;BME280;67327;37.152;-76.406;2023-03-23T05:18:16;102401.56;;;41.20;8.31
78094;BME280;67327;37.152;-76.406;2023-03-23T05:20:41;102403.77;;;41.42;8.31
78094;BME280;67327;37.152;-76.406;2023-03-23T05:23:06;102400.18;;;40.93;8.32
78094;BME280;67327;37.152;-76.406;2023-03-23T05:25:31;102398.81;;;41.14;8.33
78094;BME280;67327;37.152;-76.406;2023-03-23T05:27:56;102394.54;;;41.08;8.34
78094;BME280;67327;37.152;-76.406;2023-03-23T05:30:21;102392.75;;;41.05;8.35
78094;BME280;67327;37.152;-76.406;2023-03-23T05:32:46;102394.02;;;41.04;8.35
78094;BME280;67327;37.152;-76.406;2023-03-23T05:35:12;102392.12;;;40.78;8.36
78094;BME280;67327;37.152;-76.406;2023-03-23T05:37:36;102386.61;;;40.79;8.36
78094;BME280;67327;37.152;-76.406;2023-03-23T05:40:02;102380.31;;;41.04;8.35
78094;BME280;67327;37.152;-76.406;2023-03-23T05:42:27;102374.63;;;41.24;8.36
78094;BME280;67327;37.152;-76.406;2023-03-23T05:44:52;102369.59;;;41.22;8.37
78094;BME280;67327;37.152;-76.406;2023-03-23T05:47:17;102366.30;;;41.20;8.37
78094;BME280;67327;37.152;-76.406;2023-03-23T05:49:42;102370.84;;;41.18;8.38
78094;BME280;67327;37.152;-76.406;2023-03-23T05:52:07;102373.40;;;40.70;8.37
78094;BME280;67327;37.152;-76.406;2023-03-23T05:54:32;102378.73;;;40.93;8.38
78094;BME280;67327;37.152;-76.406;2023-03-23T05:56:58;102378.86;;;41.14;8.40
78094;BME280;67327;37.152;-76.406;2023-03-23T05:59:23;102377.20;;;41.14;8.38
78094;BME280;67327;37.152;-76.406;2023-03-23T06:01:48;102378.31;;;41.13;8.40
78094;BME280;67327;37.152;-76.406;2023-03-23T06:04:13;102373.60;;;40.88;8.40
78094;BME280;67327;37.152;-76.406;2023-03-23T06:06:38;102367.29;;;41.12;8.40
78094;BME280;67327;37.152;-76.406;2023-03-23T06:09:04;102360.14;;;41.09;8.41
78094;BME280;67327;37.152;-76.406;2023-03-23T06:11:28;102356.61;;;41.07;8.41
78094;BME280;67327;37.152;-76.406;2023-03-23T06:13:54;102354.70;;;40.82;8.39
78094;BME280;67327;37.152;-76.406;2023-03-23T06:16:19;102351.89;;;41.05;8.40
78094;BME280;67327;37.152;-76.406;2023-03-23T06:18:44;102346.81;;;41.02;8.41
78094;BME280;67327;37.152;-76.406;2023-03-23T06:21:10;102336.74;;;41.03;8.42
78094;BME280;67327;37.152;-76.406;2023-03-23T06:23:34;102337.65;;;40.80;8.42
78094;BME280;67327;37.152;-76.406;2023-03-23T06:26:02;102329.83;;;41.03;8.42
78094;BME280;67327;37.152;-76.406;2023-03-23T06:28:24;102328.58;;;40.76;8.42
78094;BME280;67327;37.152;-76.406;2023-03-23T06:30:50;102326.18;;;40.74;8.42
78094;BME280;67327;37.152;-76.406;2023-03-23T06:33:15;102320.88;;;40.94;8.43
78094;BME280;67327;37.152;-76.406;2023-03-23T06:35:40;102316.31;;;40.68;8.42
78094;BME280;67327;37.152;-76.406;2023-03-23T06:38:05;102318.91;;;40.92;8.43
78094;BME280;67327;37.152;-76.406;2023-03-23T06:40:30;102320.71;;;40.94;8.40
78094;BME280;67327;37.152;-76.406;2023-03-23T06:42:57;102320.68;;;40.92;8.42
78094;BME280;67327;37.152;-76.406;2023-03-23T06:45:21;102318.51;;;40.89;8.43
78094;BME280;67327;37.152;-76.406;2023-03-23T06:47:46;102316.12;;;40.87;8.43
78094;BME280;67327;37.152;-76.406;2023-03-23T06:50:11;102311.94;;;40.88;8.41
78094;BME280;67327;37.152;-76.406;2023-03-23T06:52:36;102305.97;;;40.63;8.42
78094;BME280;67327;37.152;-76.406;2023-03-23T06:55:01;102305.26;;;40.87;8.42
78094;BME280;67327;37.152;-76.406;2023-03-23T06:57:26;102305.54;;;41.11;8.42
78094;BME280;67327;37.152;-76.406;2023-03-23T06:59:52;102301.36;;;40.86;8.42
78094;BME280;67327;37.152;-76.406;2023-03-23T07:02:17;102294.02;;;40.85;8.43
78094;BME280;67327;37.152;-76.406;2023-03-23T07:04:42;102289.66;;;40.63;8.41
78094;BME280;67327;37.152;-76.406;2023-03-23T07:07:09;102276.04;;;40.84;8.43
78094;BME280;67327;37.152;-76.406;2023-03-23T07:09:32;102265.16;;;40.81;8.43
78094;BME280;67327;37.152;-76.406;2023-03-23T07:11:57;102253.91;;;40.80;8.42
78094;BME280;67327;37.152;-76.406;2023-03-23T07:14:22;102249.26;;;40.77;8.42
78094;BME280;67327;37.152;-76.406;2023-03-23T07:16:48;102243.66;;;40.84;8.40
78094;BME280;67327;37.152;-76.406;2023-03-23T07:19:13;102238.57;;;40.88;8.38
78094;BME280;67327;37.152;-76.406;2023-03-23T07:21:38;102233.85;;;40.62;8.39
78094;BME280;67327;37.152;-76.406;2023-03-23T07:24:03;102233.73;;;40.82;8.41
78094;BME280;67327;37.152;-76.406;2023-03-23T07:26:28;102236.40;;;40.54;8.44
78094;BME280;67327;37.152;-76.406;2023-03-23T07:28:53;102239.80;;;40.74;8.46
78094;BME280;67327;37.152;-76.406;2023-03-23T07:31:18;102239.02;;;40.70;8.47
78094;BME280;67327;37.152;-76.406;2023-03-23T07:33:43;102229.01;;;40.69;8.47
78094;BME280;67327;37.152;-76.406;2023-03-23T07:36:09;102232.40;;;40.68;8.48
78094;BME280;67327;37.152;-76.406;2023-03-23T07:38:34;102230.48;;;40.66;8.50
78094;BME280;67327;37.152;-76.406;2023-03-23T07:40:59;102220.92;;;40.64;8.53
78094;BME280;67327;37.152;-76.406;2023-03-23T07:43:24;102211.82;;;40.63;8.53
78094;BME280;67327;37.152;-76.406;2023-03-23T07:45:49;102208.69;;;40.85;8.56
78094;BME280;67327;37.152;-76.406;2023-03-23T07:48:14;102215.03;;;40.60;8.57
78094;BME280;67327;37.152;-76.406;2023-03-23T07:50:40;102219.03;;;40.59;8.58
78094;BME280;67327;37.152;-76.406;2023-03-23T07:53:05;102209.31;;;40.56;8.60
78094;BME280;67327;37.152;-76.406;2023-03-23T07:55:30;102203.92;;;40.57;8.58
78094;BME280;67327;37.152;-76.406;2023-03-23T07:57:55;102200.93;;;40.56;8.58
78094;BME280;67327;37.152;-76.406;2023-03-23T08:00:22;102192.96;;;40.55;8.60
78094;BME280;67327;37.152;-76.406;2023-03-23T08:02:46;102184.95;;;40.53;8.60
78094;BME280;67327;37.152;-76.406;2023-03-23T08:05:11;102176.05;;;40.51;8.56
78094;BME280;67327;37.152;-76.406;2023-03-23T08:07:36;102174.12;;;40.50;8.60
78094;BME280;67327;37.152;-76.406;2023-03-23T08:10:01;102175.01;;;40.49;8.59
78094;BME280;67327;37.152;-76.406;2023-03-23T08:12:26;102165.72;;;40.49;8.58
78094;BME280;67327;37.152;-76.406;2023-03-23T08:14:51;102156.05;;;40.50;8.58
78094;BME280;67327;37.152;-76.406;2023-03-23T08:17:16;102153.55;;;40.50;8.57
78094;BME280;67327;37.152;-76.406;2023-03-23T08:19:41;102144.69;;;40.55;8.55
78094;BME280;67327;37.152;-76.406;2023-03-23T08:22:07;102139.36;;;40.55;8.55
78094;BME280;67327;37.152;-76.406;2023-03-23T08:24:32;102136.54;;;40.78;8.55
78094;BME280;67327;37.152;-76.406;2023-03-23T08:26:57;102132.91;;;40.53;8.55
78094;BME280;67327;37.152;-76.406;2023-03-23T08:29:22;102131.41;;;40.52;8.56
78094;BME280;67327;37.152;-76.406;2023-03-23T08:31:47;102127.64;;;40.72;8.59
78094;BME280;67327;37.152;-76.406;2023-03-23T08:34:13;102130.40;;;40.47;8.62
78094;BME280;67327;37.152;-76.406;2023-03-23T08:36:38;102138.30;;;40.88;8.62
78094;BME280;67327;37.152;-76.406;2023-03-23T08:39:03;102143.14;;;40.32;8.67
78094;BME280;67327;37.152;-76.406;2023-03-23T08:41:28;102146.77;;;40.54;8.70
78094;BME280;67327;37.152;-76.406;2023-03-23T08:43:53;102151.13;;;40.55;8.72
78094;BME280;67327;37.152;-76.406;2023-03-23T08:46:18;102151.15;;;40.08;8.70
78094;BME280;67327;37.152;-76.406;2023-03-23T08:48:43;102147.58;;;40.33;8.70
78094;BME280;67327;37.152;-76.406;2023-03-23T08:51:09;102147.08;;;40.35;8.70
78094;BME280;67327;37.152;-76.406;2023-03-23T08:53:33;102156.36;;;40.36;8.70
78094;BME280;67327;37.152;-76.406;2023-03-23T08:56:04;102161.47;;;40.35;8.68
78094;BME280;67327;37.152;-76.406;2023-03-23T08:58:24;102158.12;;;40.34;8.72
78094;BME280;67327;37.152;-76.406;2023-03-23T09:00:49;102164.89;;;40.30;8.73
78094;BME280;67327;37.152;-76.406;2023-03-23T09:03:14;102169.26;;;40.30;8.74
78094;BME280;67327;37.152;-76.406;2023-03-23T09:05:39;102158.58;;;40.54;8.72
78094;BME280;67327;37.152;-76.406;2023-03-23T09:08:05;102153.71;;;40.28;8.72
78094;BME280;67327;37.152;-76.406;2023-03-23T09:10:30;102152.93;;;40.27;8.71
78094;BME280;67327;37.152;-76.406;2023-03-23T09:12:55;102152.60;;;40.02;8.69
78094;BME280;67327;37.152;-76.406;2023-03-23T09:15:20;102152.27;;;40.49;8.67
78094;BME280;67327;37.152;-76.406;2023-03-23T09:17:46;102146.75;;;40.25;8.65
78094;BME280;67327;37.152;-76.406;2023-03-23T09:20:13;102141.87;;;40.25;8.62
78094;BME280;67327;37.152;-76.406;2023-03-23T09:22:35;102142.98;;;40.26;8.59
78094;BME280;67327;37.152;-76.406;2023-03-23T09:25:00;102146.49;;;40.25;8.59
78094;BME280;67327;37.152;-76.406;2023-03-23T09:27:25;102138.63;;;40.47;8.58
78094;BME280;67327;37.152;-76.406;2023-03-23T09:29:51;102137.54;;;40.46;8.58
78094;BME280;67327;37.152;-76.406;2023-03-23T09:32:16;102136.37;;;40.20;8.58
78094;BME280;67327;37.152;-76.406;2023-03-23T09:34:41;102131.29;;;40.42;8.57
78094;BME280;67327;37.152;-76.406;2023-03-23T09:37:06;102134.15;;;40.64;8.58
78094;BME280;67327;37.152;-76.406;2023-03-23T09:39:31;102135.39;;;40.41;8.57
78094;BME280;67327;37.152;-76.406;2023-03-23T09:42:11;102125.58;;;40.40;8.56
78094;BME280;67327;37.152;-76.406;2023-03-23T09:44:30;102124.58;;;40.15;8.56
78094;BME280;67327;37.152;-76.406;2023-03-23T09:46:54;102123.95;;;40.39;8.54
78094;BME280;67327;37.152;-76.406;2023-03-23T09:49:17;102126.43;;;40.17;8.55
78094;BME280;67327;37.152;-76.406;2023-03-23T09:51:44;102122.83;;;40.42;8.54
78094;BME280;67327;37.152;-76.406;2023-03-23T09:54:09;102123.48;;;40.43;8.54
78094;BME280;67327;37.152;-76.406;2023-03-23T09:56:30;102130.20;;;40.42;8.53
78094;BME280;67327;37.152;-76.406;2023-03-23T09:58:57;102132.33;;;39.93;8.57
78094;BME280;67327;37.152;-76.406;2023-03-23T10:01:23;102133.36;;;40.18;8.57
78094;BME280;67327;37.152;-76.406;2023-03-23T10:03:45;102113.72;;;40.45;8.55
78094;BME280;67327;37.152;-76.406;2023-03-23T10:06:11;102105.70;;;40.23;8.53
78094;BME280;67327;37.152;-76.406;2023-03-23T10:08:34;102100.65;;;40.24;8.53
78094;BME280;67327;37.152;-76.406;2023-03-23T10:11:02;102097.33;;;40.19;8.54
78094;BME280;67327;37.152;-76.406;2023-03-23T10:13:34;102101.41;;;40.18;8.55
78094;BME280;67327;37.152;-76.406;2023-03-23T10:15:50;102104.07;;;40.43;8.52
78094;BME280;67327;37.152;-76.406;2023-03-23T10:18:17;102100.60;;;40.18;8.52
78094;BME280;67327;37.152;-76.406;2023-03-23T10:20:45;102102.13;;;40.43;8.52
78094;BME280;67327;37.152;-76.406;2023-03-23T10:23:23;102105.17;;;40.18;8.51
78094;BME280;67327;37.152;-76.406;2023-03-23T10:25:34;102105.25;;;40.18;8.53
78094;BME280;67327;37.152;-76.406;2023-03-23T10:28:01;102093.79;;;40.17;8.51
78094;BME280;67327;37.152;-76.406;2023-03-23T10:30:25;102094.72;;;40.42;8.51
78094;BME280;67327;37.152;-76.406;2023-03-23T10:32:50;102093.01;;;40.43;8.50
78094;BME280;67327;37.152;-76.406;2023-03-23T10:35:14;102085.37;;;40.67;8.48
78094;BME280;67327;37.152;-76.406;2023-03-23T10:37:38;102085.70;;;40.43;8.48
78094;BME280;67327;37.152;-76.406;2023-03-23T10:40:03;102082.82;;;40.15;8.50
78094;BME280;67327;37.152;-76.406;2023-03-23T10:42:28;102079.86;;;40.60;8.50
78094;BME280;67327;37.152;-76.406;2023-03-23T10:44:51;102078.80;;;40.34;8.51
78094;BME280;67327;37.152;-76.406;2023-03-23T10:47:16;102075.76;;;40.08;8.52
78094;BME280;67327;37.152;-76.406;2023-03-23T10:49:45;102077.94;;;40.05;8.54
78094;BME280;67327;37.152;-76.406;2023-03-23T10:52:17;102071.57;;;40.30;8.54
78094;BME280;67327;37.152;-76.406;2023-03-23T10:54:36;102062.24;;;40.08;8.53
78094;BME280;67327;37.152;-76.406;2023-03-23T10:56:57;102063.18;;;40.34;8.52
78094;BME280;67327;37.152;-76.406;2023-03-23T10:59:28;102061.49;;;40.10;8.52
78094;BME280;67327;37.152;-76.406;2023-03-23T11:01:50;102060.13;;;40.12;8.52
78094;BME280;67327;37.152;-76.406;2023-03-23T11:04:14;102058.72;;;40.14;8.51
78094;BME280;67327;37.152;-76.406;2023-03-23T11:06:38;102056.48;;;40.37;8.50
78094;BME280;67327;37.152;-76.406;2023-03-23T11:09:10;102058.09;;;40.33;8.50
78094;BME280;67327;37.152;-76.406;2023-03-23T11:11:30;102052.40;;;40.05;8.52
78094;BME280;67327;37.152;-76.406;2023-03-23T11:13:58;102048.76;;;40.49;8.55
78094;BME280;67327;37.152;-76.406;2023-03-23T11:16:25;102041.73;;;40.22;8.56
78094;BME280;67327;37.152;-76.406;2023-03-23T11:18:44;102035.05;;;39.94;8.59
78094;BME280;67327;37.152;-76.406;2023-03-23T11:21:12;102034.65;;;39.94;8.59
78094;BME280;67327;37.152;-76.406;2023-03-23T11:23:36;102038.51;;;40.18;8.62
78094;BME280;67327;37.152;-76.406;2023-03-23T11:26:09;102049.32;;;39.62;8.86
78094;BME280;67327;37.152;-76.406;2023-03-23T11:28:29;102048.68;;;38.88;9.07
78094;BME280;67327;37.152;-76.406;2023-03-23T11:30:53;102052.50;;;38.59;9.33
78094;BME280;67327;37.152;-76.406;2023-03-23T11:33:15;102056.27;;;38.50;9.33
78094;BME280;67327;37.152;-76.406;2023-03-23T11:35:44;102057.79;;;38.02;9.62
78094;BME280;67327;37.152;-76.406;2023-03-23T11:38:05;102062.02;;;37.08;10.02
78094;BME280;67327;37.152;-76.406;2023-03-23T11:40:32;102061.60;;;36.40;10.36
78094;BME280;67327;37.152;-76.406;2023-03-23T11:42:59;102059.64;;;35.86;10.67
78094;BME280;67327;37.152;-76.406;2023-03-23T11:45:30;102065.80;;;35.67;10.93
78094;BME280;67327;37.152;-76.406;2023-03-23T11:47:54;102066.29;;;35.11;11.19
78094;BME280;67327;37.152;-76.406;2023-03-23T11:50:17;102066.69;;;34.67;11.41
78094;BME280;67327;37.152;-76.406;2023-03-23T11:52:43;102074.34;;;34.29;11.56
78094;BME280;67327;37.152;-76.406;2023-03-23T11:55:07;102076.21;;;33.95;11.75
78094;BME280;67327;37.152;-76.406;2023-03-23T11:57:26;102074.57;;;33.89;11.90
78094;BME280;67327;37.152;-76.406;2023-03-23T11:59:51;102065.01;;;33.86;12.05
78094;BME280;67327;37.152;-76.406;2023-03-23T12:02:31;102062.34;;;33.61;12.18
78094;BME280;67327;37.152;-76.406;2023-03-23T12:04:55;102058.59;;;33.43;12.31
78094;BME280;67327;37.152;-76.406;2023-03-23T12:07:19;102053.28;;;33.47;12.41
78094;BME280;67327;37.152;-76.406;2023-03-23T12:09:42;102049.86;;;33.09;12.52
78094;BME280;67327;37.152;-76.406;2023-03-23T12:12:16;102041.58;;;32.95;12.61
78094;BME280;67327;37.152;-76.406;2023-03-23T12:14:29;102043.25;;;32.86;12.69
78094;BME280;67327;37.152;-76.406;2023-03-23T12:16:57;102052.64;;;32.98;12.79
78094;BME280;67327;37.152;-76.406;2023-03-23T12:19:19;102057.21;;;32.87;12.87
78094;BME280;67327;37.152;-76.406;2023-03-23T12:21:45;102051.32;;;32.78;12.96
78094;BME280;67327;37.152;-76.406;2023-03-23T12:24:08;102050.38;;;32.47;13.04
78094;BME280;67327;37.152;-76.406;2023-03-23T12:26:31;102046.97;;;32.61;13.13
78094;BME280;67327;37.152;-76.406;2023-03-23T12:29:11;102047.89;;;32.50;13.22
78094;BME280;67327;37.152;-76.406;2023-03-23T12:31:23;102046.69;;;32.69;13.31